Time;durP1;ratioP1;P1;durP2;ratioP2;P2;SDS_P1;SDS_P2;PMS_P1;PMS_P2;Temp;Humidity;BMP_temperature;BMP_pressure;BME280_temperature;BME280_humidity;BME280_pressure;Samples;Min_cycle;Max_cycle;Signal;HPM_P1;HPM_P2
2022/09/10 00:00:46;;;;;;;3.17;1.50;;;;;;;14.60;100.00;96035.16;5011296;28;20444;-60
2022/09/10 00:03:12;;;;;;;3.15;1.40;;;;;;;14.65;98.21;96037.34;5009838;28;20028;-61
2022/09/10 00:05:42;;;;;;;1.67;1.20;;;;;;;14.58;100.00;96039.78;5012214;28;20053;-60
2022/09/10 00:08:09;;;;;;;1.65;1.05;;;;;;;14.56;100.00;96038.28;5012817;28;20042;-60
2022/09/10 00:10:42;;;;;;;3.63;1.15;;;;;;;14.55;100.00;96041.91;5008890;28;20061;-60
2022/09/10 00:13:09;;;;;;;1.20;0.90;;;;;;;14.61;100.00;96036.81;5008897;28;20030;-61
2022/09/10 00:15:52;;;;;;;1.10;0.95;;;;;;;14.59;100.00;96041.44;5005986;28;20120;-60
2022/09/10 00:18:20;;;;;;;2.95;1.10;;;;;;;14.55;100.00;96042.75;5009042;28;20030;-61
2022/09/10 00:20:49;;;;;;;4.35;1.73;;;;;;;14.57;99.74;96051.38;5007763;28;20088;-60
2022/09/10 00:23:17;;;;;;;1.15;1.00;;;;;;;14.50;100.00;96044.22;5004758;28;20125;-60
2022/09/10 00:25:47;;;;;;;2.05;1.20;;;;;;;14.49;100.00;96051.34;5007166;28;20148;-60
2022/09/10 00:28:13;;;;;;;2.78;1.40;;;;;;;14.49;100.00;96043.41;5015282;28;20507;-60
2022/09/10 00:30:40;;;;;;;2.10;1.05;;;;;;;14.46;99.54;96041.03;5008056;28;20053;-61
2022/09/10 00:33:05;;;;;;;3.15;1.27;;;;;;;14.44;99.90;96045.66;5003842;28;20044;-60
2022/09/10 00:35:34;;;;;;;2.85;1.42;;;;;;;14.35;100.00;96043.97;5009901;28;20045;-60
2022/09/10 00:38:00;;;;;;;3.83;1.30;;;;;;;14.34;100.00;96040.47;5000156;28;20510;-60
2022/09/10 00:40:26;;;;;;;7.35;1.20;;;;;;;14.35;100.00;96046.63;5004754;28;20119;-60
2022/09/10 00:42:52;;;;;;;2.50;1.50;;;;;;;14.31;100.00;96046.09;5006456;28;20529;-60
2022/09/10 00:45:21;;;;;;;1.35;1.10;;;;;;;14.29;100.00;96040.97;5007245;28;20104;-60
2022/09/10 00:47:50;;;;;;;5.97;1.40;;;;;;;14.27;100.00;96039.47;5007882;28;20041;-61
2022/09/10 00:50:21;;;;;;;6.40;1.35;;;;;;;14.26;100.00;96041.28;5009943;28;20501;-61
2022/09/10 00:52:49;;;;;;;2.45;0.95;;;;;;;14.26;100.00;96033.34;5004971;28;20034;-60
2022/09/10 00:55:16;;;;;;;2.33;1.20;;;;;;;14.27;100.00;96034.16;5014553;28;20529;-60
2022/09/10 00:57:43;;;;;;;1.95;0.90;;;;;;;14.24;100.00;96030.00;5009965;28;20040;-60
2022/09/10 01:00:11;;;;;;;2.97;1.30;;;;;;;14.24;100.00;96026.53;5010542;28;20033;-60
2022/09/10 01:02:36;;;;;;;4.60;1.20;;;;;;;14.27;100.00;96031.50;5010177;28;20416;-60
2022/09/10 01:05:04;;;;;;;1.48;1.00;;;;;;;14.32;100.00;96034.50;5003835;28;20026;-60
2022/09/10 01:07:31;;;;;;;2.08;1.00;;;;;;;14.31;100.00;96033.69;5007623;28;20128;-60
2022/09/10 01:10:00;;;;;;;4.20;1.30;;;;;;;14.25;100.00;96025.53;5010973;28;20216;-60
2022/09/10 01:12:37;;;;;;;1.10;1.10;;;;;;;14.24;100.00;96035.28;5010440;28;20037;-60
2022/09/10 01:15:02;;;;;;;2.05;1.15;;;;;;;14.21;100.00;96030.31;5012003;28;20037;-60
2022/09/10 01:17:53;;;;;;;1.98;1.05;;;;;;;14.18;99.52;96030.63;5005639;28;20030;-60
2022/09/10 01:20:28;;;;;;;1.35;1.13;;;;;;;14.11;99.23;96032.25;5010655;28;20030;-60
2022/09/10 01:23:14;;;;;;;8.30;1.35;;;;;;;14.07;99.00;96025.59;5004963;28;20045;-60
2022/09/10 01:25:55;;;;;;;1.23;1.00;;;;;;;13.98;100.00;96024.72;5004380;28;20024;-60
2022/09/10 01:28:40;;;;;;;0.90;0.90;;;;;;;13.91;100.00;96019.22;5009171;28;20402;-60
2022/09/10 01:31:17;;;;;;;2.40;1.08;;;;;;;13.89;100.00;96015.88;5005847;28;20037;-60
2022/09/10 01:33:56;;;;;;;2.10;1.10;;;;;;;13.83;100.00;96030.56;5010597;28;20048;-61
2022/09/10 01:36:27;;;;;;;2.30;1.15;;;;;;;13.77;100.00;96033.84;5004152;28;20117;-60
2022/09/10 01:38:53;;;;;;;2.47;1.30;;;;;;;13.78;100.00;96032.00;5004966;28;20029;-60
2022/09/10 01:41:22;;;;;;;2.35;1.10;;;;;;;13.72;100.00;96028.19;5013053;28;20507;-60
2022/09/10 01:43:47;;;;;;;1.00;1.00;;;;;;;13.65;100.00;96030.59;5009517;28;20033;-60
2022/09/10 01:46:40;;;;;;;1.20;1.10;;;;;;;13.61;100.00;96026.59;5010637;28;20041;-60
2022/09/10 01:49:40;;;;;;;1.27;1.17;;;;;;;13.54;100.00;96030.81;5013822;28;20026;-60
2022/09/10 01:52:18;;;;;;;1.45;1.20;;;;;;;13.52;100.00;96030.16;5003009;28;20041;-60
2022/09/10 01:55:01;;;;;;;3.65;1.40;;;;;;;13.53;100.00;96029.16;5007768;28;20092;-60
2022/09/10 01:57:54;;;;;;;3.03;1.20;;;;;;;13.57;100.00;96022.56;5007073;28;20072;-60
2022/09/10 02:00:21;;;;;;;5.95;1.40;;;;;;;13.52;100.00;96022.22;5004016;28;20025;-60
2022/09/10 02:02:57;;;;;;;2.35;1.23;;;;;;;13.48;100.00;96023.50;5006679;28;20022;-60
2022/09/10 02:05:26;;;;;;;1.30;1.00;;;;;;;13.42;100.00;96011.69;5008701;28;20108;-60
2022/09/10 02:07:57;;;;;;;1.77;1.15;;;;;;;13.44;100.00;96015.03;5010606;28;20017;-60
2022/09/10 02:10:23;;;;;;;2.03;1.10;;;;;;;13.41;100.00;96012.66;5010533;28;20037;-60
2022/09/10 02:12:48;;;;;;;2.30;1.13;;;;;;;13.38;100.00;96008.53;5007832;28;20026;-61
2022/09/10 02:15:17;;;;;;;1.23;1.00;;;;;;;13.38;100.00;96008.53;5008261;28;20792;-60
2022/09/10 02:17:45;;;;;;;3.00;1.33;;;;;;;13.38;100.00;96003.22;5006385;28;20033;-60
2022/09/10 02:20:13;;;;;;;1.35;1.10;;;;;;;13.36;100.00;96002.53;5008417;28;20120;-60
2022/09/10 02:22:44;;;;;;;2.35;1.27;;;;;;;13.31;100.00;96008.28;5002430;28;20463;-60
2022/09/10 02:25:11;;;;;;;2.45;1.65;;;;;;;13.24;100.00;95998.47;5004122;28;20029;-60
2022/09/10 02:27:37;;;;;;;1.42;1.27;;;;;;;13.17;100.00;95996.44;5009164;28;20026;-60
2022/09/10 02:30:04;;;;;;;2.63;1.10;;;;;;;13.17;100.00;95996.44;5012999;28;20030;-60
2022/09/10 02:32:29;;;;;;;1.20;1.10;;;;;;;13.13;100.00;96004.81;5004272;28;20030;-60
2022/09/10 02:34:55;;;;;;;1.33;1.00;;;;;;;13.12;100.00;95998.69;5010368;28;20040;-60
2022/09/10 02:37:20;;;;;;;3.47;1.10;;;;;;;13.09;100.00;95995.53;5005917;28;20034;-60
2022/09/10 02:39:45;;;;;;;1.98;0.90;;;;;;;13.09;100.00;95998.16;5009416;28;20029;-60
2022/09/10 02:42:15;;;;;;;1.45;1.13;;;;;;;13.04;100.00;95988.03;5019177;28;20524;-60
2022/09/10 02:44:41;;;;;;;1.25;1.10;;;;;;;13.02;100.00;95993.47;5010224;28;20104;-60
2022/09/10 02:47:06;;;;;;;1.75;1.30;;;;;;;12.93;100.00;95990.88;5001601;28;20108;-61
2022/09/10 02:49:33;;;;;;;3.28;1.35;;;;;;;12.88;100.00;95980.78;5015411;28;20030;-60
2022/09/10 02:52:01;;;;;;;3.67;1.33;;;;;;;12.85;100.00;95978.44;5004936;28;20032;-60
2022/09/10 02:54:27;;;;;;;3.83;1.20;;;;;;;12.82;100.00;95982.19;5004896;28;20028;-60
2022/09/10 02:56:52;;;;;;;3.42;1.15;;;;;;;12.88;100.00;95975.50;5004179;28;20038;-60
2022/09/10 02:59:18;;;;;;;1.88;1.42;;;;;;;12.85;100.00;95976.59;5005421;28;20477;-60
2022/09/10 03:01:43;;;;;;;1.58;1.00;;;;;;;12.84;100.00;95980.22;5004956;28;20069;-61
2022/09/10 03:04:09;;;;;;;1.52;1.10;;;;;;;12.83;100.00;95978.56;5008000;28;20084;-60
2022/09/10 03:06:37;;;;;;;1.52;1.25;;;;;;;12.79;100.00;95971.94;5004917;28;20038;-60
2022/09/10 03:09:03;;;;;;;1.10;0.98;;;;;;;12.85;100.00;95975.78;5002059;28;20049;-60
2022/09/10 03:11:28;;;;;;;2.33;1.20;;;;;;;12.92;100.00;95973.38;5008169;28;20090;-60
2022/09/10 03:13:54;;;;;;;2.40;1.38;;;;;;;12.96;100.00;95966.81;5001763;28;20037;-61
2022/09/10 03:16:20;;;;;;;1.30;1.20;;;;;;;12.91;100.00;95975.19;5003491;28;20041;-60
2022/09/10 03:18:45;;;;;;;2.60;1.27;;;;;;;12.90;100.00;95966.41;5008623;28;20033;-60
2022/09/10 03:21:19;;;;;;;1.95;1.35;;;;;;;12.92;100.00;95973.38;5008031;28;20398;-60
2022/09/10 03:23:48;;;;;;;1.70;1.20;;;;;;;12.92;100.00;95965.44;5013246;28;20033;-60
2022/09/10 03:26:15;;;;;;;3.80;1.48;;;;;;;12.94;100.00;95964.31;5011149;28;20083;-60
2022/09/10 03:28:42;;;;;;;1.95;1.02;;;;;;;12.98;100.00;95965.66;5009200;28;20416;-60
2022/09/10 03:31:08;;;;;;;3.70;1.33;;;;;;;12.99;100.00;95966.53;5013408;28;20516;-60
2022/09/10 03:33:35;;;;;;;3.22;1.40;;;;;;;12.97;100.00;95968.47;5011790;28;20030;-60
2022/09/10 03:36:01;;;;;;;3.72;1.60;;;;;;;13.00;100.00;95971.63;5009114;28;20064;-61
2022/09/10 03:38:27;;;;;;;2.25;1.42;;;;;;;13.04;100.00;95972.19;5014144;28;20022;-61
2022/09/10 03:40:53;;;;;;;4.10;1.55;;;;;;;13.02;100.00;95972.31;5002677;28;20033;-60
2022/09/10 03:43:21;;;;;;;4.30;1.42;;;;;;;12.99;100.00;95972.63;5018239;28;20084;-60
2022/09/10 03:45:48;;;;;;;1.85;1.17;;;;;;;12.95;100.00;95970.44;5007988;28;20037;-60
2022/09/10 03:48:15;;;;;;;1.73;1.23;;;;;;;12.94;100.00;95968.78;5011129;28;20105;-60
2022/09/10 03:50:43;;;;;;;1.25;1.23;;;;;;;12.90;100.00;95971.69;5008438;28;20401;-61
2022/09/10 03:53:13;;;;;;;4.95;1.20;;;;;;;12.93;100.00;95975.03;5010697;28;20116;-61
2022/09/10 03:55:38;;;;;;;2.17;1.17;;;;;;;12.90;100.00;95968.25;5012322;28;20022;-60
2022/09/10 03:58:07;;;;;;;2.45;1.48;;;;;;;12.86;100.00;95983.56;5015795;28;20025;-60
2022/09/10 04:00:33;;;;;;;2.10;1.25;;;;;;;12.83;100.00;95980.41;5010168;28;20037;-60
2022/09/10 04:02:59;;;;;;;1.33;1.13;;;;;;;12.85;100.00;95973.97;5011145;28;20083;-61
2022/09/10 04:05:26;;;;;;;2.83;1.40;;;;;;;12.88;100.00;95971.03;5002976;28;20530;-60
2022/09/10 04:07:53;;;;;;;1.55;1.27;;;;;;;12.88;100.00;95981.59;4994548;28;20026;-60
2022/09/10 04:10:22;;;;;;;2.22;1.20;;;;;;;12.85;100.00;95976.59;5010190;28;20072;-60
2022/09/10 04:12:47;;;;;;;5.10;1.55;;;;;;;12.83;100.00;95978.56;5010270;28;20045;-60
2022/09/10 04:15:13;;;;;;;2.20;1.20;;;;;;;12.79;100.00;95969.28;5002557;28;20029;-60
2022/09/10 04:17:39;;;;;;;1.38;1.27;;;;;;;12.80;100.00;95978.88;5006743;28;20030;-60
2022/09/10 04:20:05;;;;;;;4.43;1.33;;;;;;;12.78;100.00;95977.34;5011769;28;20045;-61
2022/09/10 04:22:31;;;;;;;2.70;1.83;;;;;;;12.77;100.00;95979.19;5008150;28;20037;-60
2022/09/10 04:24:56;;;;;;;1.80;1.65;;;;;;;12.77;100.00;95979.19;5009608;28;20030;-60
2022/09/10 04:27:22;;;;;;;1.60;1.20;;;;;;;12.73;100.00;95972.53;5006583;28;20277;-60
2022/09/10 04:29:47;;;;;;;3.60;1.38;;;;;;;12.69;100.00;95979.91;5012005;28;20018;-60
2022/09/10 04:32:13;;;;;;;1.45;1.10;;;;;;;12.65;100.00;95975.06;5008965;28;20026;-61
2022/09/10 04:34:38;;;;;;;2.33;1.20;;;;;;;12.65;100.00;95973.28;5007750;28;20022;-61
2022/09/10 04:37:03;;;;;;;3.05;1.60;;;;;;;12.65;100.00;95972.44;5004366;28;20145;-60
2022/09/10 04:39:29;;;;;;;2.67;1.13;;;;;;;12.59;100.00;95973.84;5010505;28;20022;-60
2022/09/10 04:41:54;;;;;;;2.17;1.17;;;;;;;12.59;100.00;95976.47;5004074;28;20022;-60
2022/09/10 04:44:20;;;;;;;3.40;1.50;;;;;;;12.60;100.00;95979.00;5002937;28;20040;-61
2022/09/10 04:46:46;;;;;;;3.70;1.50;;;;;;;12.59;100.00;95989.69;5004704;28;20119;-60
2022/09/10 04:49:12;;;;;;;2.72;1.40;;;;;;;12.60;100.00;95983.47;5006363;28;20189;-60
2022/09/10 04:51:38;;;;;;;2.90;1.52;;;;;;;12.69;100.00;95982.56;5011853;28;20037;-60
2022/09/10 04:54:03;;;;;;;2.53;1.45;;;;;;;12.71;100.00;95980.59;5010545;28;20409;-60
2022/09/10 04:56:29;;;;;;;6.82;1.15;;;;;;;12.72;100.00;95982.25;5016640;28;20064;-60
2022/09/10 04:58:55;;;;;;;2.97;1.20;;;;;;;12.69;100.00;95992.28;5013631;28;20109;-60
2022/09/10 05:01:20;;;;;;;3.40;1.52;;;;;;;12.68;100.00;95990.63;5008245;28;20080;-60
2022/09/10 05:03:46;;;;;;;2.78;1.50;;;;;;;12.71;100.00;95990.31;5008774;28;20036;-60
2022/09/10 05:06:11;;;;;;;1.55;1.13;;;;;;;12.69;100.00;95992.28;5005405;28;20038;-60
2022/09/10 05:08:36;;;;;;;1.20;1.20;;;;;;;12.65;100.00;95985.63;5001353;28;20042;-60
2022/09/10 05:11:02;;;;;;;3.80;1.13;;;;;;;12.64;100.00;95989.25;5002876;28;20117;-60
2022/09/10 05:13:29;;;;;;;3.70;1.48;;;;;;;12.61;100.00;95985.94;5003381;28;20034;-60
2022/09/10 05:15:56;;;;;;;4.55;1.25;;;;;;;12.63;100.00;95990.22;5002681;28;20030;-60
2022/09/10 05:18:22;;;;;;;1.63;1.20;;;;;;;12.66;100.00;95989.94;5002544;28;20114;-61
2022/09/10 05:20:48;;;;;;;1.05;1.02;;;;;;;12.67;100.00;95991.59;5009351;28;20113;-60
2022/09/10 05:23:13;;;;;;;3.55;1.13;;;;;;;12.65;100.00;95993.56;5015151;28;20068;-60
2022/09/10 05:25:38;;;;;;;3.30;1.00;;;;;;;12.58;100.00;95990.66;5001543;28;20279;-59
2022/09/10 05:28:04;;;;;;;3.50;1.23;;;;;;;12.56;100.00;95992.63;5005018;28;20026;-60
2022/09/10 05:30:31;;;;;;;3.55;1.50;;;;;;;12.54;100.00;95991.94;5006390;28;20033;-60
2022/09/10 05:32:58;;;;;;;1.70;1.50;;;;;;;12.61;100.00;95996.50;5005397;28;20125;-60
2022/09/10 05:35:23;;;;;;;4.50;1.25;;;;;;;12.73;100.00;95999.78;5005048;28;20034;-60
2022/09/10 05:37:49;;;;;;;1.50;1.23;;;;;;;12.87;100.00;96005.53;5003328;28;20035;-60
2022/09/10 05:40:15;;;;;;;4.30;1.27;;;;;;;12.97;100.00;96011.59;4997694;28;20141;-60
2022/09/10 05:42:40;;;;;;;1.92;1.10;;;;;;;12.93;100.00;96009.38;5007266;28;20045;-60
2022/09/10 05:45:06;;;;;;;4.28;1.33;;;;;;;12.87;100.00;96006.34;5006533;28;20026;-60
2022/09/10 05:47:32;;;;;;;1.27;1.13;;;;;;;12.81;100.00;96003.47;5002489;28;20407;-60
2022/09/10 05:49:57;;;;;;;2.80;1.20;;;;;;;12.67;100.00;96002.16;5011528;28;20030;-60
2022/09/10 05:52:23;;;;;;;2.90;1.30;;;;;;;12.61;100.00;96007.06;5005190;28;20030;-61
2022/09/10 05:54:48;;;;;;;4.95;1.27;;;;;;;12.59;100.00;96002.88;5002467;28;20061;-60
2022/09/10 05:57:14;;;;;;;2.40;1.45;;;;;;;12.61;100.00;96011.53;5003006;28;20014;-60
2022/09/10 05:59:39;;;;;;;4.03;1.30;;;;;;;12.61;100.00;96014.97;5003199;28;20023;-60
2022/09/10 06:02:04;;;;;;;5.13;1.33;;;;;;;12.61;100.00;96011.53;5009096;28;20030;-60
2022/09/10 06:04:30;;;;;;;1.40;1.30;;;;;;;12.51;100.00;96022.13;5003830;28;20049;-60
2022/09/10 06:06:55;;;;;;;2.13;1.42;;;;;;;12.48;100.00;96019.75;5005659;28;20061;-60
2022/09/10 06:09:20;;;;;;;4.53;1.40;;;;;;;12.49;100.00;96015.31;5002603;28;20053;-60
2022/09/10 06:11:49;;;;;;;3.78;1.23;;;;;;;12.50;100.00;96020.47;5010942;28;20034;-61
2022/09/10 06:14:14;;;;;;;1.83;1.33;;;;;;;12.57;100.00;96023.34;5003052;28;20061;-60
2022/09/10 06:16:40;;;;;;;3.17;1.30;;;;;;;12.71;100.00;96025.50;5003571;28;20060;-60
2022/09/10 06:19:07;;;;;;;3.67;1.48;;;;;;;12.79;100.00;96023.94;5003729;28;20089;-60
2022/09/10 06:21:32;;;;;;;8.40;1.30;;;;;;;12.79;100.00;96021.28;5004921;28;20045;-61
2022/09/10 06:23:58;;;;;;;1.90;1.20;;;;;;;12.78;100.00;96023.09;5002298;28;20481;-60
2022/09/10 06:26:23;;;;;;;1.55;1.35;;;;;;;12.89;100.00;96020.25;5001866;28;20041;-60
2022/09/10 06:28:48;;;;;;;4.60;1.40;;;;;;;12.98;100.00;96023.00;5001343;28;20034;-60
2022/09/10 06:31:16;;;;;;;1.90;1.17;;;;;;;13.08;100.00;96029.03;5005042;28;20080;-61
2022/09/10 06:33:43;;;;;;;2.53;1.45;;;;;;;13.25;100.00;96029.22;5003252;28;20413;-60
2022/09/10 06:36:09;;;;;;;2.28;1.10;;;;;;;13.41;100.00;96039.09;5003689;28;20032;-60
2022/09/10 06:38:35;;;;;;;1.15;1.10;;;;;;;13.57;100.00;96038.44;5006298;28;20481;-60
2022/09/10 06:41:07;;;;;;;2.58;1.58;;;;;;;13.82;100.00;96046.63;5001377;28;20037;-60
2022/09/10 06:43:35;;;;;;;2.85;1.45;;;;;;;13.94;100.00;96045.38;5000483;28;20061;-60
2022/09/10 06:46:04;;;;;;;5.20;2.05;;;;;;;14.20;98.19;96041.06;5005487;28;20037;-60
2022/09/10 06:48:30;;;;;;;5.03;1.63;;;;;;;14.40;96.53;96039.88;5001561;28;20061;-61
2022/09/10 06:50:55;;;;;;;1.48;1.25;;;;;;;14.43;95.45;96042.19;5001371;28;20040;-61
2022/09/10 06:53:22;;;;;;;3.45;1.17;;;;;;;14.49;94.66;96038.09;4975953;28;20472;-60
2022/09/10 06:55:51;;;;;;;2.60;1.30;;;;;;;14.56;93.79;96041.78;5003193;28;20032;-61
2022/09/10 06:58:19;;;;;;;8.65;1.55;;;;;;;14.68;91.98;96034.38;5008154;28;20081;-61
2022/09/10 07:00:48;;;;;;;4.55;1.30;;;;;;;14.86;89.83;96046.72;5011498;28;20120;-60
2022/09/10 07:03:15;;;;;;;3.50;1.33;;;;;;;15.24;89.52;96038.38;5006137;28;20026;-61
2022/09/10 07:05:42;;;;;;;2.13;1.15;;;;;;;15.53;89.16;96039.75;4999397;28;20552;-60
2022/09/10 07:08:11;;;;;;;2.63;1.20;;;;;;;15.97;87.62;96054.56;5002575;28;20073;-60
2022/09/10 07:10:37;;;;;;;3.38;1.48;;;;;;;16.21;84.87;96050.22;5006629;28;20056;-60
2022/09/10 07:13:03;;;;;;;5.57;1.23;;;;;;;16.44;84.67;96063.59;5008163;28;20065;-60
2022/09/10 07:15:28;;;;;;;4.90;1.25;;;;;;;16.88;82.13;96054.34;5010430;28;20060;-60
2022/09/10 07:17:54;;;;;;;3.50;1.48;;;;;;;17.26;80.12;96051.03;5004946;28;20321;-60
2022/09/10 07:20:22;;;;;;;2.92;2.08;;;;;;;17.29;78.21;96045.34;5011165;28;20021;-60
2022/09/10 07:22:50;;;;;;;2.38;1.48;;;;;;;17.52;76.94;96055.19;5000321;28;20030;-60
2022/09/10 07:25:15;;;;;;;5.72;1.70;;;;;;;17.44;77.93;96064.88;5004943;28;20045;-60
2022/09/10 07:27:41;;;;;;;3.45;1.80;;;;;;;17.36;79.55;96064.09;5007585;28;20022;-60
2022/09/10 07:30:06;;;;;;;1.42;1.17;;;;;;;17.51;77.91;96051.72;5008826;28;20105;-60
2022/09/10 07:32:32;;;;;;;2.08;1.20;;;;;;;17.42;76.43;96053.59;5004231;28;20026;-60
2022/09/10 07:34:58;;;;;;;3.83;1.40;;;;;;;17.17;77.35;96059.06;5006728;28;20073;-60
2022/09/10 07:37:24;;;;;;;1.90;1.10;;;;;;;17.22;75.74;96061.19;5009054;28;20034;-60
2022/09/10 07:39:50;;;;;;;2.70;1.08;;;;;;;17.33;76.80;96068.78;5013405;28;20024;-60
2022/09/10 07:42:15;;;;;;;1.35;1.02;;;;;;;17.61;77.04;96060.28;5009632;28;20029;-59
2022/09/10 07:44:40;;;;;;;1.10;1.00;;;;;;;17.81;76.57;96061.66;5006659;28;20081;-60
2022/09/10 07:47:06;;;;;;;1.23;1.00;;;;;;;17.99;74.36;96062.16;5010358;28;20037;-59
2022/09/10 07:49:31;;;;;;;3.13;0.93;;;;;;;17.96;74.79;96059.84;5010593;28;20104;-59
2022/09/10 07:51:57;;;;;;;1.95;1.05;;;;;;;17.94;72.60;96064.53;5015595;28;20057;-59
2022/09/10 07:54:23;;;;;;;1.38;1.02;;;;;;;17.78;72.37;96062.84;5018715;28;20110;-59
2022/09/10 07:56:49;;;;;;;3.92;1.10;;;;;;;17.92;73.04;96063.88;5011025;28;20507;-59
2022/09/10 07:59:14;;;;;;;1.80;1.17;;;;;;;18.13;70.97;96068.59;5009410;28;20133;-59
2022/09/10 08:01:39;;;;;;;3.13;1.00;;;;;;;18.15;71.18;96066.56;5012140;28;20057;-59
2022/09/10 08:04:06;;;;;;;1.23;0.98;;;;;;;18.02;70.55;96059.19;5019072;28;20559;-59
2022/09/10 08:06:32;;;;;;;1.88;0.98;;;;;;;18.22;71.30;96063.16;5013728;28;20041;-59
2022/09/10 08:08:59;;;;;;;3.80;1.10;;;;;;;18.56;70.62;96052.00;5006394;28;20116;-57
2022/09/10 08:11:25;;;;;;;2.72;1.60;;;;;;;18.99;69.64;96062.00;5009490;28;20045;-56
2022/09/10 08:13:52;;;;;;;2.92;1.17;;;;;;;18.95;69.90;96058.03;5004398;28;20084;-57
2022/09/10 08:16:20;;;;;;;3.20;1.17;;;;;;;18.94;69.05;96056.38;5006610;28;20037;-58
2022/09/10 08:18:46;;;;;;;6.00;1.27;;;;;;;18.57;70.00;96058.97;5002674;28;20077;-58
2022/09/10 08:21:12;;;;;;;1.38;0.80;;;;;;;18.81;69.09;96054.38;5009492;28;20084;-54
2022/09/10 08:23:38;;;;;;;2.70;1.38;;;;;;;19.10;68.62;96052.69;5005409;28;20053;-58
2022/09/10 08:26:05;;;;;;;3.08;1.10;;;;;;;19.39;67.30;96058.16;4996103;28;20064;-58
2022/09/10 08:28:31;;;;;;;3.78;0.93;;;;;;;19.93;65.46;96050.72;5001703;28;20030;-58
2022/09/10 08:31:03;;;;;;;1.48;1.00;;;;;;;19.96;63.58;96047.66;4996859;28;20508;-58
2022/09/10 08:33:29;;;;;;;2.75;1.10;;;;;;;20.22;60.79;96052.38;5003217;28;20040;-57
2022/09/10 08:35:56;;;;;;;1.30;0.80;;;;;;;20.58;58.31;96050.59;4998883;28;20025;-57
2022/09/10 08:38:28;;;;;;;5.35;1.27;;;;;;;20.02;58.56;96052.22;5006081;28;20014;-58
2022/09/10 08:40:55;;;;;;;2.28;1.13;;;;;;;20.04;59.84;96050.19;5000781;28;20037;-58
2022/09/10 08:43:32;;;;;;;1.77;0.85;;;;;;;20.14;58.37;96057.88;4997425;28;20055;-58
2022/09/10 08:46:03;;;;;;;3.50;1.27;;;;;;;20.18;57.92;96053.78;5001094;28;20034;-57
2022/09/10 08:48:31;;;;;;;3.88;0.90;;;;;;;20.26;56.64;96061.69;5002689;28;20405;-55
2022/09/10 08:51:05;;;;;;;1.65;1.08;;;;;;;20.25;57.69;96054.69;5003125;28;20052;-58
2022/09/10 08:53:46;;;;;;;1.33;1.02;;;;;;;20.67;54.95;96054.75;5002296;28;20029;-58
2022/09/10 08:56:18;;;;;;;1.38;1.20;;;;;;;20.95;53.97;96047.72;5000628;28;20038;-58
2022/09/10 08:59:04;;;;;;;2.03;0.98;;;;;;;21.08;54.12;96052.31;4998325;28;20422;-58
2022/09/10 09:01:35;;;;;;;3.20;1.23;;;;;;;21.23;52.70;96065.53;5008497;28;20501;-58
2022/09/10 09:04:08;;;;;;;2.72;0.82;;;;;;;21.01;53.52;96057.63;5013408;28;20042;-58
2022/09/10 09:06:42;;;;;;;2.00;1.20;;;;;;;20.23;53.92;96064.75;5003163;28;20019;-58
2022/09/10 09:09:09;;;;;;;1.45;1.00;;;;;;;19.79;55.80;96063.09;5002907;28;20065;-59
2022/09/10 09:12:08;;;;;;;2.85;1.30;;;;;;;19.37;56.62;96055.69;4998950;28;20031;-59
2022/09/10 09:14:52;;;;;;;1.55;0.85;;;;;;;18.98;57.19;96051.50;5001295;28;20026;-58
2022/09/10 09:17:32;;;;;;;2.58;1.10;;;;;;;19.25;57.91;96057.19;5002090;28;20022;-58
2022/09/10 09:20:04;;;;;;;1.90;1.05;;;;;;;19.66;56.15;96051.25;4998184;28;20042;-57
2022/09/10 09:22:39;;;;;;;3.13;1.20;;;;;;;19.51;55.16;96045.16;4999875;28;20154;-58
2022/09/10 09:25:18;;;;;;;1.47;1.03;;;;;;;19.58;56.11;96043.38;4999311;28;20129;-57
2022/09/10 09:27:44;;;;;;;1.40;1.10;;;;;;;19.95;55.17;96049.50;4999604;28;20322;-58
2022/09/10 09:30:13;;;;;;;1.02;0.98;;;;;;;20.14;53.08;96052.53;5000851;28;20014;-58
2022/09/10 09:32:44;;;;;;;1.38;0.90;;;;;;;20.11;52.51;96048.38;4999890;28;20531;-58
2022/09/10 09:35:26;;;;;;;2.10;1.20;;;;;;;20.06;52.19;96047.34;5000988;28;20027;-57
2022/09/10 09:38:06;;;;;;;2.55;1.10;;;;;;;20.09;51.41;96050.44;5003091;28;20026;-56
2022/09/10 09:40:56;;;;;;;1.55;1.23;;;;;;;20.16;50.67;96053.16;4996449;28;20030;-58
2022/09/10 09:43:41;;;;;;;2.38;1.10;;;;;;;20.21;50.38;96041.91;5004592;28;20575;-57
2022/09/10 09:46:15;;;;;;;2.70;1.27;;;;;;;20.52;50.44;96035.31;5001495;28;20057;-56
2022/09/10 09:48:41;;;;;;;2.22;1.60;;;;;;;20.69;48.75;96033.97;5000700;28;20025;-58
2022/09/10 09:51:12;;;;;;;1.52;1.02;;;;;;;20.87;47.66;96041.50;5003571;28;20061;-57
2022/09/10 09:53:39;;;;;;;2.60;1.33;;;;;;;20.83;48.09;96034.91;5006772;28;20108;-57
2022/09/10 09:56:11;;;;;;;1.63;1.00;;;;;;;20.89;46.38;96036.81;5014436;28;20017;-57
2022/09/10 09:58:38;;;;;;;2.50;0.88;;;;;;;20.66;46.12;96023.66;5007915;28;20493;-57
2022/09/10 10:01:04;;;;;;;2.05;1.10;;;;;;;20.67;45.28;96024.47;5008239;28;20029;-56
2022/09/10 10:03:51;;;;;;;2.60;1.00;;;;;;;20.59;48.60;96018.28;5010050;28;20083;-57
2022/09/10 10:06:19;;;;;;;3.58;1.00;;;;;;;20.53;48.37;96019.06;5008304;28;20041;-56
2022/09/10 10:08:56;;;;;;;1.70;1.02;;;;;;;20.39;48.66;96018.19;5001442;28;20109;-57
2022/09/10 10:11:37;;;;;;;1.63;1.05;;;;;;;20.43;48.43;96016.75;5007336;28;20069;-57
2022/09/10 10:14:12;;;;;;;2.85;1.30;;;;;;;20.37;48.21;96016.72;5006431;28;20513;-58
2022/09/10 10:16:38;;;;;;;2.50;1.10;;;;;;;20.60;49.51;96009.22;5006727;28;20052;-57
2022/09/10 10:19:26;;;;;;;1.35;1.25;;;;;;;20.85;47.53;96011.44;5009112;28;20608;-58
2022/09/10 10:21:53;;;;;;;3.47;1.38;;;;;;;21.02;48.97;96013.78;5003514;28;20499;-57
2022/09/10 10:24:33;;;;;;;1.40;1.30;;;;;;;21.29;48.47;96009.34;5003643;28;20033;-57
2022/09/10 10:26:59;;;;;;;1.45;1.20;;;;;;;21.58;48.58;96014.56;5003882;28;20033;-57
2022/09/10 10:29:26;;;;;;;2.05;1.27;;;;;;;21.87;46.36;96002.63;4985963;28;20034;-57
2022/09/10 10:31:52;;;;;;;4.07;1.30;;;;;;;21.80;46.40;96001.81;5004672;28;20371;-57
2022/09/10 10:34:39;;;;;;;4.55;1.77;;;;;;;21.18;47.78;95997.38;5004944;28;20471;-57
2022/09/10 10:38:03;;;;;;;1.95;1.27;;;;;;;21.54;48.17;95992.72;5009120;28;20026;-58
2022/09/10 10:40:33;;;;;;;2.55;1.30;;;;;;;21.77;48.82;95991.53;4924850;28;20044;-58
2022/09/10 10:43:05;;;;;;;1.73;1.05;;;;;;;21.93;47.54;95989.47;4947546;28;20039;-58
2022/09/10 10:45:51;;;;;;;2.33;1.10;;;;;;;21.99;48.64;95992.13;4989934;28;20046;-59
2022/09/10 10:48:47;;;;;;;1.90;1.00;;;;;;;22.39;47.37;95993.13;5004431;28;20029;-58
2022/09/10 10:51:39;;;;;;;4.78;2.05;;;;;;;23.09;43.20;95989.81;5005314;28;20029;-58
2022/09/10 10:54:34;;;;;;;2.70;1.00;;;;;;;23.20;44.86;95992.88;5011090;28;20036;-58
2022/09/10 10:58:00;;;;;;;4.00;0.80;;;;;;;22.78;44.69;95987.91;5005090;28;20125;-58
2022/09/10 11:00:27;;;;;;;;;;;;;;;22.67;45.30;95982.13;4965268;28;20035;-58
2022/09/10 11:03:04;;;;;;;1.70;1.00;;;;;;;23.32;43.53;95981.25;4961098;28;20001;-58
2022/09/10 11:05:37;;;;;;;1.95;0.88;;;;;;;23.71;44.19;95975.81;4991795;28;20471;-58
2022/09/10 11:08:28;;;;;;;0.85;0.80;;;;;;;23.59;41.74;95972.22;5007348;28;20504;-58
2022/09/10 11:11:17;;;;;;;1.45;0.95;;;;;;;23.79;43.57;95968.56;4993409;28;20129;-58
2022/09/10 11:14:25;;;;;;;1.00;0.82;;;;;;;23.71;41.23;95967.75;5003596;28;20516;-58
2022/09/10 11:16:58;;;;;;;0.82;0.77;;;;;;;23.84;41.61;95963.34;5001153;28;20038;-58
2022/09/10 11:19:46;;;;;;;1.15;0.60;;;;;;;24.03;41.59;95970.44;5010097;28;20049;-59
2022/09/10 11:22:19;;;;;;;3.33;0.90;;;;;;;24.38;40.96;95961.00;5003121;28;20068;-58
2022/09/10 11:24:50;;;;;;;1.13;0.80;;;;;;;24.35;40.62;95966.00;5005531;28;20053;-58
2022/09/10 11:27:21;;;;;;;5.05;0.70;;;;;;;24.67;40.48;95964.00;5002176;28;20029;-58
2022/09/10 11:30:01;;;;;;;3.13;1.10;;;;;;;24.50;39.58;95958.38;4994560;28;20497;-57
2022/09/10 11:32:42;;;;;;;3.30;1.00;;;;;;;24.69;39.26;95959.19;4998918;28;20034;-58
2022/09/10 11:35:35;;;;;;;0.80;0.60;;;;;;;24.74;39.66;95963.91;4994739;28;20026;-57
2022/09/10 11:38:10;;;;;;;1.42;0.95;;;;;;;24.79;41.22;95957.91;4994752;28;20085;-57
2022/09/10 11:41:05;;;;;;;3.70;1.15;;;;;;;24.14;38.75;95949.22;4995944;28;20479;-57
2022/09/10 11:43:37;;;;;;;1.25;0.85;;;;;;;24.75;39.66;95958.31;4996743;28;20057;-59